Hodgkins, Illinois
Current Conditions -  °F | °C
As of 9:29 PM on Monday 26 Jan 2015 (Local Time) from KMDW Reporting Station
Light Snow Light Snow  
Wind Chill: 22°   Ceiling: 700
Heat Index: 28°   Visibility: 1.7mi
Dew Point: 25°   Wind: 6mph
Humidity: 88%   Direction: 160°SSE
Pressure: 29.91"   Gusts: NA
Location:  41.7814°N, 87.8717°W
Report Text: KMDW 270329Z 16005KT 1 3/4SM -SN BR OVC007 M02/M04 A2991 RMK AO2 FZDZE15 P0000 I1000 T10221039
Loading
Personal Weather Stations






























Interactive Weather Map New forecast layout! Learn more

10-Day Weather Forecast

Advertisements
Track Severe Weather on mobile